createdAt,value
2023-04-02T00:00:12.454Z,99806.88
2023-04-02T00:03:09.213Z,99813.16
2023-04-02T00:05:51.712Z,99811.44
2023-04-02T00:08:29.056Z,99813.16
2023-04-02T00:11:01.467Z,99810.59
2023-04-02T00:13:33.917Z,99823.78
2023-04-02T00:16:04.889Z,99821.91
2023-04-02T00:18:34.014Z,99822.84
2023-04-02T00:21:16.994Z,99821.13
2023-04-02T00:23:45.586Z,99820.19
2023-04-02T00:26:32.351Z,99814.19
2023-04-02T00:29:01.221Z,99819.34
2023-04-02T00:31:29.909Z,99825.69
2023-04-02T00:33:59.140Z,99824.56
2023-04-02T00:36:31.311Z,99833.56
2023-04-02T00:39:02.118Z,99833.56
2023-04-02T00:41:32.325Z,99823.03
2023-04-02T00:44:02.007Z,99820.38
2023-04-02T00:46:47.277Z,99818.47
2023-04-02T00:49:16.023Z,99825.50
2023-04-02T00:51:57.372Z,99833.56
2023-04-02T00:54:29.472Z,99822.16
2023-04-02T00:56:58.998Z,99837.09
2023-04-02T00:59:33.776Z,99829.28
2023-04-02T01:02:15.013Z,99827.31
2023-04-02T01:05:02.663Z,99829.03
2023-04-02T01:08:08.645Z,99837.88
2023-04-02T01:10:53.363Z,99835.19
2023-04-02T01:13:30.570Z,99833.75
2023-04-02T01:16:23.276Z,99838.03
2023-04-02T01:18:57.539Z,99819.50
2023-04-02T01:21:42.780Z,99822.06
2023-04-02T01:24:12.944Z,99837.25
2023-04-02T01:26:58.110Z,99835.47
2023-04-02T01:29:30.807Z,99832.88
2023-04-02T01:32:05.004Z,99819.84
2023-04-02T01:34:34.130Z,99825.06
2023-04-02T01:37:14.823Z,99825.00
2023-04-02T01:39:52.608Z,99837.44
2023-04-02T01:42:56.312Z,99832.88
2023-04-02T01:45:26.140Z,99831.94
2023-04-02T01:47:54.896Z,99830.31
2023-04-02T01:50:31.914Z,99829.44
2023-04-02T01:53:04.524Z,99836.50
2023-04-02T01:55:55.391Z,99837.50
2023-04-02T01:58:26.445Z,99841.13
2023-04-02T02:01:13.795Z,99848.16
2023-04-02T02:03:44.134Z,99843.69
2023-04-02T02:06:16.857Z,99840.19
2023-04-02T02:08:52.904Z,99849.00
2023-04-02T02:11:24.993Z,99854.31
2023-04-02T02:14:01.090Z,99850.91
2023-04-02T02:16:32.054Z,99854.41
2023-04-02T02:19:03.222Z,99859.81
2023-04-02T02:21:42.729Z,99861.53
2023-04-02T02:24:32.044Z,99876.63
2023-04-02T02:27:22.846Z,99872.16
2023-04-02T02:30:00.998Z,99875.59
2023-04-02T02:32:32.939Z,99878.34
2023-04-02T02:35:11.822Z,99877.47
2023-04-02T02:37:44.840Z,99884.69
2023-04-02T02:40:27.660Z,99897.03
2023-04-02T02:43:00.655Z,99898.75
2023-04-02T02:45:34.412Z,99902.34
2023-04-02T02:48:04.669Z,99896.47
2023-04-02T02:50:34.057Z,99902.56
2023-04-02T02:53:24.258Z,99913.19
2023-04-02T02:55:59.435Z,99921.06
2023-04-02T02:58:33.326Z,99921.91
2023-04-02T03:01:09.643Z,99918.50
2023-04-02T03:03:41.061Z,99915.94
2023-04-02T03:06:16.841Z,99913.28
2023-04-02T03:09:04.605Z,99916.78
2023-04-02T03:11:51.352Z,99913.19
2023-04-02T03:14:24.978Z,99915.84
2023-04-02T03:17:03.969Z,99920.22
2023-04-02T03:19:45.964Z,99922.13
2023-04-02T03:22:21.510Z,99930.88
2023-04-02T03:25:10.336Z,99925.53
2023-04-02T03:27:44.825Z,99929.16
2023-04-02T03:30:27.812Z,99932.75
2023-04-02T03:33:14.674Z,99929.31
2023-04-02T03:35:48.751Z,99931.88
2023-04-02T03:38:23.476Z,99934.47
2023-04-02T03:41:06.066Z,99932.75
2023-04-02T03:43:47.844Z,99940.81
2023-04-02T03:46:24.899Z,99934.63
2023-04-02T03:49:12.137Z,99932.81
2023-04-02T03:51:54.492Z,99936.34
2023-04-02T03:54:22.969Z,99937.13
2023-04-02T03:56:53.014Z,99934.47
2023-04-02T03:59:50.776Z,99949.38
2023-04-02T04:02:45.964Z,99952.13
2023-04-02T04:05:25.758Z,99961.06
2023-04-02T04:08:13.065Z,99955.81
2023-04-02T04:10:43.585Z,99966.44
2023-04-02T04:13:16.060Z,99971.84
2023-04-02T04:16:05.611Z,99977.16
2023-04-02T04:18:49.286Z,99978.88
2023-04-02T04:21:31.527Z,99980.69
2023-04-02T04:24:23.053Z,99981.63
2023-04-02T04:27:04.064Z,99971.84
2023-04-02T04:29:58.807Z,99980.78
2023-04-02T04:32:32.193Z,99980.78
2023-04-02T04:35:29.591Z,99978.28
2023-04-02T04:38:07.928Z,99988.13
2023-04-02T04:40:43.867Z,100003.91
2023-04-02T04:43:17.796Z,99997.97
2023-04-02T04:45:58.883Z,100014.56
2023-04-02T04:48:36.323Z,100016.44
2023-04-02T04:51:07.343Z,100019.94
2023-04-02T04:53:46.597Z,100032.22
2023-04-02T04:56:21.860Z,100033.94
2023-04-02T04:59:32.579Z,100039.25
2023-04-02T05:02:04.421Z,100042.00
2023-04-02T05:04:37.750Z,100055.22
2023-04-02T05:07:13.796Z,100057.09
2023-04-02T05:10:02.805Z,100064.28
2023-04-02T05:12:40.267Z,100061.63
2023-04-02T05:15:23.639Z,100064.28
2023-04-02T05:18:18.347Z,100071.31
2023-04-02T05:20:56.965Z,100075.84
2023-04-02T05:23:33.018Z,100068.75
2023-04-02T05:26:18.939Z,100063.50
2023-04-02T05:28:51.045Z,100067.09
2023-04-02T05:31:40.929Z,100068.03
2023-04-02T05:34:11.754Z,100082.13
2023-04-02T05:36:40.086Z,100081.34
2023-04-02T05:39:10.448Z,100089.16
2023-04-02T05:41:46.665Z,100094.47
2023-04-02T05:44:31.789Z,100090.16
2023-04-02T05:47:06.939Z,100104.25
2023-04-02T05:49:43.471Z,100109.56
2023-04-02T05:52:16.450Z,100124.66
2023-04-02T05:55:13.411Z,100119.34
2023-04-02T05:58:01.259Z,100134.44
2023-04-02T06:00:42.250Z,100143.34
2023-04-02T06:03:45.003Z,100145.06
2023-04-02T06:06:45.343Z,100151.25
2023-04-02T06:09:25.521Z,100154.84
2023-04-02T06:12:27.813Z,100162.81
2023-04-02T06:14:56.709Z,100169.06
2023-04-02T06:17:29.101Z,100157.66
2023-04-02T06:20:00.215Z,100169.06
2023-04-02T06:22:38.403Z,100169.94
2023-04-02T06:25:40.245Z,100181.34
2023-04-02T06:28:31.822Z,100181.41
2023-04-02T06:31:03.532Z,100184.16
2023-04-02T06:33:37.389Z,100195.66
2023-04-02T06:36:07.393Z,100202.69
2023-04-02T06:38:38.269Z,100193.94
2023-04-02T06:41:22.040Z,100211.44
2023-04-02T06:44:32.663Z,100211.59
2023-04-02T06:47:38.956Z,100212.31
2023-04-02T06:50:14.758Z,100195.66
2023-04-02T06:52:52.855Z,100205.28
2023-04-02T06:55:27.956Z,100201.66
2023-04-02T06:57:57.228Z,100200.97
2023-04-02T07:00:43.196Z,100215.81
2023-04-02T07:03:22.273Z,100217.78
2023-04-02T07:05:51.179Z,100227.31
2023-04-02T07:08:20.653Z,100231.00
2023-04-02T07:10:49.460Z,100222.22
2023-04-02T07:13:22.937Z,100232.88
2023-04-02T07:15:54.325Z,100237.25
2023-04-02T07:18:24.420Z,100244.28
2023-04-02T07:20:52.916Z,100238.34
2023-04-02T07:23:22.280Z,100252.41
2023-04-02T07:25:52.375Z,100249.75
2023-04-02T07:28:22.744Z,100264.78
2023-04-02T07:30:52.406Z,100262.91
2023-04-02T07:33:24.566Z,100263.22
2023-04-02T07:35:54.695Z,100269.22
2023-04-02T07:38:23.455Z,100271.97
2023-04-02T07:40:52.135Z,100280.66
2023-04-02T07:43:21.024Z,100285.09
2023-04-02T07:45:50.803Z,100289.47
2023-04-02T07:48:19.035Z,100290.41
2023-04-02T07:50:47.434Z,100296.66
2023-04-02T07:53:33.396Z,100291.34
2023-04-02T07:56:03.936Z,100299.31
2023-04-02T07:58:32.846Z,100298.41
2023-04-02T08:01:04.675Z,100310.91
2023-04-02T08:03:33.114Z,100305.59
2023-04-02T08:06:01.937Z,100301.19
2023-04-02T08:08:30.106Z,100314.34
2023-04-02T08:10:58.856Z,100314.34
2023-04-02T08:13:27.085Z,100317.94
2023-04-02T08:15:59.103Z,100320.66
2023-04-02T08:18:27.907Z,100325.91
2023-04-02T08:20:57.458Z,100324.13
2023-04-02T08:23:27.251Z,100327.72
2023-04-02T08:25:56.275Z,100330.31
2023-04-02T08:28:24.612Z,100330.38
2023-04-02T08:30:53.309Z,100334.03
2023-04-02T08:33:21.589Z,100335.75
2023-04-02T08:35:50.813Z,100334.03
2023-04-02T08:38:20.755Z,100337.66
2023-04-02T08:40:55.329Z,100352.75
2023-04-02T08:43:54.213Z,100353.44
2023-04-02T08:46:52.352Z,100370.31
2023-04-02T08:49:32.209Z,100360.63
2023-04-02T08:52:01.207Z,100364.06
2023-04-02T08:54:32.193Z,100361.41
2023-04-02T08:57:19.770Z,100354.44
2023-04-02T08:59:48.165Z,100335.94
2023-04-02T09:02:39.686Z,100330.63
2023-04-02T09:05:21.127Z,100341.06
2023-04-02T09:07:51.178Z,100336.91
2023-04-02T09:10:19.891Z,100354.88
2023-04-02T09:12:52.008Z,100357.25
2023-04-02T09:15:29.740Z,100351.69
2023-04-02T09:18:28.771Z,100353.53
2023-04-02T09:20:57.037Z,100359.31
2023-04-02T09:23:26.295Z,100359.19
2023-04-02T09:26:04.212Z,100364.34
2023-04-02T09:28:33.498Z,100363.47
2023-04-02T09:31:16.299Z,100371.25
2023-04-02T09:33:50.459Z,100367.84
2023-04-02T09:36:36.580Z,100373.91
2023-04-02T09:39:17.853Z,100387.38
2023-04-02T09:41:55.783Z,100381.03
2023-04-02T09:44:31.700Z,100373.78
2023-04-02T09:47:05.684Z,100386.91
2023-04-02T09:49:38.647Z,100386.91
2023-04-02T09:52:11.450Z,100388.78
2023-04-02T09:54:43.212Z,100387.06
2023-04-02T09:57:38.968Z,100392.53
2023-04-02T10:00:32.053Z,100388.06
2023-04-02T10:03:26.376Z,100378.16
2023-04-02T10:06:13.114Z,100384.41
2023-04-02T10:08:45.388Z,100379.88
2023-04-02T10:11:46.308Z,100378.16
2023-04-02T10:14:24.646Z,100367.22
2023-04-02T10:17:23.833Z,100363.84
2023-04-02T10:20:34.010Z,100364.94
2023-04-02T10:23:06.445Z,100366.91
2023-04-02T10:25:41.802Z,100368.06
2023-04-02T10:28:23.788Z,100364.94
2023-04-02T10:31:37.399Z,100365.81
2023-04-02T10:34:13.399Z,100359.53
2023-04-02T10:36:58.880Z,100352.75
2023-04-02T10:39:45.904Z,100351.50
2023-04-02T10:42:27.099Z,100347.53
2023-04-02T10:45:01.610Z,100349.06
2023-04-02T10:47:41.437Z,100349.97
2023-04-02T10:50:19.180Z,100353.28
2023-04-02T10:53:03.303Z,100346.91
2023-04-02T10:55:34.745Z,100347.97
2023-04-02T10:58:08.762Z,100341.06
2023-04-02T11:00:40.126Z,100345.97
2023-04-02T11:03:15.129Z,100347.81
2023-04-02T11:05:54.627Z,100353.00
2023-04-02T11:08:45.327Z,100363.31
2023-04-02T11:11:19.540Z,100359.72
2023-04-02T11:14:14.986Z,100371.69
2023-04-02T11:16:44.948Z,100373.28
2023-04-02T11:19:16.875Z,100380.31
2023-04-02T11:21:58.081Z,100384.91
2023-04-02T11:24:37.321Z,100399.69
2023-04-02T11:27:12.108Z,100406.13
2023-04-02T11:29:58.668Z,100405.47
2023-04-02T11:32:36.749Z,100413.09
2023-04-02T11:35:30.948Z,100413.38
2023-04-02T11:38:23.841Z,100419.56
2023-04-02T11:40:59.543Z,100430.91
2023-04-02T11:43:36.754Z,100435.66
2023-04-02T11:46:24.835Z,100447.69
2023-04-02T11:48:55.385Z,100432.97
2023-04-02T11:51:23.710Z,100432.22
2023-04-02T11:53:58.718Z,100442.66
2023-04-02T11:56:46.057Z,100451.00
2023-04-02T11:59:20.800Z,100444.81
2023-04-02T12:02:07.203Z,100448.63
2023-04-02T12:04:46.653Z,100452.53
2023-04-02T12:07:35.158Z,100440.50
2023-04-02T12:10:18.782Z,100432.41
2023-04-02T12:12:47.278Z,100435.41
2023-04-02T12:15:41.867Z,100445.28
2023-04-02T12:18:18.616Z,100440.28
2023-04-02T12:20:52.618Z,100434.50
2023-04-02T12:23:36.615Z,100421.69
2023-04-02T12:26:08.639Z,100407.38
2023-04-02T12:28:38.412Z,100405.78
2023-04-02T12:31:14.308Z,100394.19
2023-04-02T12:33:42.969Z,100382.97
2023-04-02T12:36:14.759Z,100375.75
2023-04-02T12:38:49.943Z,100377.75
2023-04-02T12:41:31.165Z,100375.78
2023-04-02T12:44:18.625Z,100368.47
2023-04-02T12:46:47.532Z,100361.09
2023-04-02T12:49:34.048Z,100359.38
2023-04-02T12:52:07.480Z,100359.53
2023-04-02T12:54:44.367Z,100357.97
2023-04-02T12:57:29.062Z,100348.63
2023-04-02T12:59:58.823Z,100345.69
2023-04-02T13:02:44.421Z,100345.13
2023-04-02T13:05:13.097Z,100321.16
2023-04-02T13:10:33.636Z,100337.34
2023-04-02T13:13:03.651Z,100331.75
2023-04-02T13:15:33.717Z,100335.22
2023-04-02T13:18:12.679Z,100328.75
2023-04-02T13:20:43.373Z,100324.78
2023-04-02T13:23:31.414Z,100313.19
2023-04-02T13:26:03.150Z,100317.44
2023-04-02T13:28:31.813Z,100314.78
2023-04-02T13:31:00.025Z,100301.63
2023-04-02T13:33:29.340Z,100312.00
2023-04-02T13:35:57.669Z,100303.84
2023-04-02T13:38:27.173Z,100298.41
2023-04-02T13:40:55.643Z,100298.19
2023-04-02T13:43:24.189Z,100291.34
2023-04-02T13:45:57.222Z,100299.97
2023-04-02T13:48:28.912Z,100296.38
2023-04-02T13:50:57.748Z,100295.16
2023-04-02T13:53:30.451Z,100303.94
2023-04-02T13:55:58.564Z,100304.22
2023-04-02T13:58:27.920Z,100308.59
2023-04-02T14:00:56.239Z,100312.03
2023-04-02T14:03:25.504Z,100305.28
2023-04-02T14:06:23.049Z,100307.88
2023-04-02T14:09:02.957Z,100303.28
2023-04-02T14:11:58.280Z,100301.22
2023-04-02T14:14:39.136Z,100300.28
2023-04-02T14:17:29.880Z,100301.06
2023-04-02T14:20:11.031Z,100295.75
2023-04-02T14:22:41.931Z,100304.81
2023-04-02T14:25:31.930Z,100302.94
2023-04-02T14:28:23.792Z,100298.03
2023-04-02T14:31:04.477Z,100292.88
2023-04-02T14:34:22.971Z,100299.84
2023-04-02T14:37:06.699Z,100305.94
2023-04-02T14:39:49.875Z,100292.94
2023-04-02T14:42:27.261Z,100281.53
2023-04-02T14:45:04.803Z,100292.88
2023-04-02T14:47:46.823Z,100291.84
2023-04-02T14:50:22.911Z,100285.53
2023-04-02T14:52:55.879Z,100287.94
2023-04-02T14:55:27.921Z,100296.09
2023-04-02T14:57:56.669Z,100292.22
2023-04-02T15:00:29.599Z,100291.63
2023-04-02T15:03:06.085Z,100294.19
2023-04-02T15:05:50.659Z,100297.03
2023-04-02T15:08:27.400Z,100293.50
2023-04-02T15:11:25.008Z,100291.84
2023-04-02T15:14:17.348Z,100298.56
2023-04-02T15:16:47.043Z,100299.34
2023-04-02T15:19:20.573Z,100292.22
2023-04-02T15:22:08.195Z,100296.47
2023-04-02T15:24:49.347Z,100292.38
2023-04-02T15:27:25.497Z,100293.31
2023-04-02T15:30:15.065Z,100291.78
2023-04-02T15:32:43.935Z,100293.56
2023-04-02T15:35:48.365Z,100287.38
2023-04-02T15:38:26.918Z,100292.00
2023-04-02T15:40:55.322Z,100290.19
2023-04-02T15:43:37.450Z,100289.34
2023-04-02T15:46:22.166Z,100287.75
2023-04-02T15:49:20.259Z,100291.06
2023-04-02T15:52:11.338Z,100288.56
2023-04-02T15:54:45.449Z,100294.81
2023-04-02T15:57:29.020Z,100293.94
2023-04-02T16:00:19.408Z,100304.50
2023-04-02T16:03:02.956Z,100302.56
2023-04-02T16:05:50.920Z,100296.44
2023-04-02T16:08:43.418Z,100302.78
2023-04-02T16:11:16.249Z,100301.84
2023-04-02T16:13:45.171Z,100309.88
2023-04-02T16:16:25.549Z,100310.81
2023-04-02T16:19:05.949Z,100306.44
2023-04-02T16:22:18.981Z,100308.31
2023-04-02T16:24:51.689Z,100305.59
2023-04-02T16:27:36.393Z,100315.28
2023-04-02T16:30:24.430Z,100317.00
2023-04-02T16:33:09.942Z,100318.88
2023-04-02T16:36:07.414Z,100331.16
2023-04-02T16:38:57.445Z,100329.50
2023-04-02T16:41:49.820Z,100334.69
2023-04-02T16:44:50.801Z,100331.03
2023-04-02T16:47:50.166Z,100332.03
2023-04-02T16:50:39.212Z,100332.66
2023-04-02T16:53:10.771Z,100337.53
2023-04-02T16:56:07.852Z,100340.59
2023-04-02T16:59:04.362Z,100344.28
2023-04-02T17:02:03.453Z,100339.19
2023-04-02T17:05:02.744Z,100347.84
2023-04-02T17:07:36.606Z,100348.06
2023-04-02T17:10:07.879Z,100346.59
2023-04-02T17:12:42.971Z,100345.81
2023-04-02T17:15:31.387Z,100348.69
2023-04-02T17:18:01.399Z,100356.88
2023-04-02T17:20:30.557Z,100346.25
2023-04-02T17:22:59.244Z,100348.13
2023-04-02T17:26:08.055Z,100354.44
2023-04-02T17:28:37.423Z,100350.16
2023-04-02T17:31:20.878Z,100353.72
2023-04-02T17:33:49.815Z,100361.69
2023-04-02T17:36:38.367Z,100361.91
2023-04-02T17:39:28.900Z,100369.94
2023-04-02T17:42:12.687Z,100369.94
2023-04-02T17:44:59.479Z,100380.66
2023-04-02T17:47:48.327Z,100381.59
2023-04-02T17:51:01.050Z,100383.69
2023-04-02T17:53:40.331Z,100391.81
2023-04-02T17:56:38.234Z,100384.91
2023-04-02T17:59:23.862Z,100394.03
2023-04-02T18:02:03.906Z,100396.59
2023-04-02T18:05:00.890Z,100395.97
2023-04-02T18:07:38.358Z,100414.31
2023-04-02T18:10:36.969Z,100421.50
2023-04-02T18:13:14.675Z,100436.00
2023-04-02T18:16:32.497Z,100426.50
2023-04-02T18:19:06.241Z,100436.56
2023-04-02T18:21:53.125Z,100447.44
2023-04-02T18:24:30.269Z,100448.50
2023-04-02T18:27:34.159Z,100449.44
2023-04-02T18:30:35.291Z,100461.19
2023-04-02T18:33:41.109Z,100463.91
2023-04-02T18:36:48.315Z,100465.91
2023-04-02T18:39:41.005Z,100470.28
2023-04-02T18:42:11.215Z,100473.06
2023-04-02T18:45:20.505Z,100480.34
2023-04-02T18:48:22.660Z,100486.53
2023-04-02T18:50:54.141Z,100485.66
2023-04-02T18:53:25.366Z,100484.72
2023-04-02T18:56:09.676Z,100479.59
2023-04-02T18:58:54.346Z,100495.41
2023-04-02T19:01:34.774Z,100493.63
2023-04-02T19:04:11.262Z,100500.16
2023-04-02T19:06:45.691Z,100509.91
2023-04-02T19:09:21.496Z,100502.75
2023-04-02T19:11:54.073Z,100504.53
2023-04-02T19:14:23.713Z,100499.25
2023-04-02T19:17:05.592Z,100490.59
2023-04-02T19:19:43.374Z,100509.19
2023-04-02T19:22:23.289Z,100519.28
2023-04-02T19:25:00.675Z,100528.63
2023-04-02T19:27:59.461Z,100529.22
2023-04-02T19:30:40.127Z,100527.25
2023-04-02T19:33:36.660Z,100517.34
2023-04-02T19:36:17.957Z,100514.59
2023-04-02T19:39:12.663Z,100517.91
2023-04-02T19:41:49.115Z,100516.06
2023-04-02T19:44:21.531Z,100537.13
2023-04-02T19:46:51.804Z,100537.19
2023-04-02T19:49:34.292Z,100538.84
2023-04-02T19:52:18.591Z,100545.72
2023-04-02T19:54:50.249Z,100543.16
2023-04-02T19:57:25.562Z,100559.88
2023-04-02T19:59:54.705Z,100562.47
2023-04-02T20:02:24.090Z,100554.56
2023-04-02T20:04:57.587Z,100558.88
2023-04-02T20:07:27.856Z,100549.91
2023-04-02T20:09:58.030Z,100543.78
2023-04-02T20:12:27.009Z,100554.28
2023-04-02T20:14:58.648Z,100564.13
2023-04-02T20:17:27.687Z,100581.75
2023-04-02T20:19:57.471Z,100581.00
2023-04-02T20:22:26.182Z,100572.78
2023-04-02T20:24:55.347Z,100560.34
2023-04-02T20:27:24.707Z,100552.56
2023-04-02T20:29:53.580Z,100556.03
2023-04-02T20:32:23.102Z,100540.00
2023-04-02T20:34:51.878Z,100533.91
2023-04-02T20:37:24.052Z,100539.94
2023-04-02T20:40:03.407Z,100559.47
2023-04-02T20:42:33.356Z,100567.53
2023-04-02T20:45:05.298Z,100589.59
2023-04-02T20:47:33.584Z,100592.19
2023-04-02T20:50:02.517Z,100611.66
2023-04-02T20:52:36.344Z,100601.03
2023-04-02T20:55:05.473Z,100591.25
2023-04-02T20:57:34.596Z,100580.50
2023-04-02T21:00:06.110Z,100560.13
2023-04-02T21:02:34.787Z,100568.94
2023-04-02T21:05:04.151Z,100595.38
2023-04-02T21:07:32.394Z,100583.81
2023-04-02T21:10:01.944Z,100587.25
2023-04-02T21:12:32.550Z,100585.53
2023-04-02T21:15:03.202Z,100597.03
2023-04-02T21:17:31.671Z,100594.31
2023-04-02T21:20:00.351Z,100593.44
2023-04-02T21:22:30.951Z,100585.41
2023-04-02T21:24:59.576Z,100584.47
2023-04-02T21:27:27.766Z,100596.03
2023-04-02T21:29:56.421Z,100585.41
2023-04-02T21:32:24.661Z,100570.38
2023-04-02T21:34:55.086Z,100585.53
2023-04-02T21:37:23.172Z,100583.69
2023-04-02T21:39:51.700Z,100574.63
2023-04-02T21:42:19.891Z,100555.22
2023-04-02T21:44:48.714Z,100555.28
2023-04-02T21:47:16.956Z,100560.41
2023-04-02T21:49:45.571Z,100556.88
2023-04-02T21:52:13.740Z,100561.53
2023-04-02T21:54:42.170Z,100566.00
2023-04-02T21:57:10.589Z,100579.34
2023-04-02T21:59:39.095Z,100583.81
2023-04-02T22:02:07.358Z,100575.09
2023-04-02T22:04:36.395Z,100583.81
2023-04-02T22:07:04.548Z,100575.19
2023-04-02T22:09:33.024Z,100570.66
2023-04-02T22:12:02.036Z,100570.66
2023-04-02T22:17:16.363Z,100564.41
2023-04-02T22:19:44.847Z,100566.28
2023-04-02T22:22:12.973Z,100564.59
2023-04-02T22:24:41.409Z,100568.09
2023-04-02T22:27:09.583Z,100562.84
2023-04-02T22:29:38.037Z,100564.59
2023-04-02T22:32:24.457Z,100564.66
2023-04-02T22:35:11.216Z,100563.72
2023-04-02T22:37:39.401Z,100566.38
2023-04-02T22:40:08.585Z,100562.00
2023-04-02T22:42:56.022Z,100563.72
2023-04-02T22:45:24.568Z,100560.22
2023-04-02T22:47:52.814Z,100557.69
2023-04-02T22:50:21.565Z,100564.66
2023-04-02T22:55:35.740Z,100566.47
2023-04-02T22:58:22.878Z,100555.09
2023-04-02T23:06:20.768Z,100556.81
2023-04-02T23:08:49.255Z,100560.41
2023-04-02T23:11:23.258Z,100556.94
2023-04-02T23:14:10.207Z,100572.78
2023-04-02T23:16:38.415Z,100562.13
2023-04-02T23:19:06.933Z,100575.44
2023-04-02T23:21:35.166Z,100565.72
2023-04-02T23:24:03.785Z,100569.25
2023-04-02T23:26:32.151Z,100579.03
2023-04-02T23:29:00.990Z,100581.81
2023-04-02T23:31:29.435Z,100580.88
2023-04-02T23:33:58.657Z,100579.03
2023-04-02T23:36:45.180Z,100569.38
2023-04-02T23:39:14.340Z,100574.63
2023-04-02T23:41:43.481Z,100566.66
2023-04-02T23:44:12.333Z,100584.34
2023-04-02T23:46:41.180Z,100570.31
2023-04-02T23:49:12.882Z,100572.03
2023-04-02T23:51:41.702Z,100571.25
2023-04-02T23:54:12.359Z,100568.50
2023-04-02T23:56:41.608Z,100564.00
2023-04-02T23:59:10.193Z,100569.31
